sensor_id;sensor_type;location;lat;lon;timestamp;temperature;humidity
59067;DHT22;44854;50.838;4.438;2023-04-09T04:03:04;6.80;99.90
59067;DHT22;44854;50.838;4.438;2023-04-09T04:05:30;6.80;99.90
59067;DHT22;44854;50.838;4.438;2023-04-09T04:07:55;6.80;99.90
59067;DHT22;44854;50.838;4.438;2023-04-09T04:10:21;6.80;99.90
59067;DHT22;44854;50.838;4.438;2023-04-09T04:12:46;6.80;99.90
59067;DHT22;44854;50.838;4.438;2023-04-09T04:15:12;6.90;99.90
59067;DHT22;44854;50.838;4.438;2023-04-09T04:17:38;7.00;99.90
59067;DHT22;44854;50.838;4.438;2023-04-09T04:20:03;6.90;99.90
59067;DHT22;44854;50.838;4.438;2023-04-09T04:22:29;6.80;99.90
59067;DHT22;44854;50.838;4.438;2023-04-09T04:24:54;6.90;99.90
59067;DHT22;44854;50.838;4.438;2023-04-09T04:27:20;6.90;99.90
59067;DHT22;44854;50.838;4.438;2023-04-09T04:29:45;6.90;99.90
59067;DHT22;44854;50.838;4.438;2023-04-09T04:32:11;6.90;99.90
59067;DHT22;44854;50.838;4.438;2023-04-09T04:34:36;6.90;99.90
59067;DHT22;44854;50.838;4.438;2023-04-09T04:37:02;6.80;99.90
59067;DHT22;44854;50.838;4.438;2023-04-09T04:39:29;6.60;99.90
59067;DHT22;44854;50.838;4.438;2023-04-09T04:41:55;6.70;99.90
59067;DHT22;44854;50.838;4.438;2023-04-09T04:44:21;6.70;99.90
59067;DHT22;44854;50.838;4.438;2023-04-09T04:46:46;6.70;99.90
59067;DHT22;44854;50.838;4.438;2023-04-09T04:49:12;6.70;99.90
59067;DHT22;44854;50.838;4.438;2023-04-09T04:51:37;6.60;99.90
59067;DHT22;44854;50.838;4.438;2023-04-09T04:54:03;6.70;99.90
59067;DHT22;44854;50.838;4.438;2023-04-09T04:56:28;6.70;99.90
59067;DHT22;44854;50.838;4.438;2023-04-09T04:58:54;6.60;99.90
59067;DHT22;44854;50.838;4.438;2023-04-09T05:01:19;6.60;99.90
59067;DHT22;44854;50.838;4.438;2023-04-09T05:03:45;6.60;99.90
59067;DHT22;44854;50.838;4.438;2023-04-09T05:06:10;6.50;99.90
59067;DHT22;44854;50.838;4.438;2023-04-09T05:08:36;6.60;99.90
59067;DHT22;44854;50.838;4.438;2023-04-09T05:11:01;6.60;99.90
59067;DHT22;44854;50.838;4.438;2023-04-09T05:13:27;6.60;99.90
59067;DHT22;44854;50.838;4.438;2023-04-09T05:15:52;6.50;99.90
59067;DHT22;44854;50.838;4.438;2023-04-09T05:18:18;6.50;99.90
59067;DHT22;44854;50.838;4.438;2023-04-09T05:20:44;6.50;99.90
59067;DHT22;44854;50.838;4.438;2023-04-09T05:23:09;6.50;99.90
59067;DHT22;44854;50.838;4.438;2023-04-09T05:25:36;6.50;99.90
59067;DHT22;44854;50.838;4.438;2023-04-09T05:28:02;6.50;99.90
59067;DHT22;44854;50.838;4.438;2023-04-09T05:30:28;6.50;99.90
59067;DHT22;44854;50.838;4.438;2023-04-09T05:32:53;6.60;99.90
59067;DHT22;44854;50.838;4.438;2023-04-09T05:35:19;6.60;99.90
59067;DHT22;44854;50.838;4.438;2023-04-09T05:37:44;6.50;99.90
59067;DHT22;44854;50.838;4.438;2023-04-09T05:40:16;6.50;99.90
59067;DHT22;44854;50.838;4.438;2023-04-09T05:42:41;6.60;99.90
59067;DHT22;44854;50.838;4.438;2023-04-09T05:45:07;6.70;99.90
59067;DHT22;44854;50.838;4.438;2023-04-09T05:47:33;6.70;99.90
59067;DHT22;44854;50.838;4.438;2023-04-09T05:49:59;6.70;99.90
59067;DHT22;44854;50.838;4.438;2023-04-09T05:52:24;6.80;99.90
59067;DHT22;44854;50.838;4.438;2023-04-09T05:54:51;6.90;99.90
59067;DHT22;44854;50.838;4.438;2023-04-09T05:57:17;6.80;99.90
59067;DHT22;44854;50.838;4.438;2023-04-09T05:59:42;6.80;99.90
59067;DHT22;44854;50.838;4.438;2023-04-09T06:02:08;6.90;99.90
59067;DHT22;44854;50.838;4.438;2023-04-09T06:04:33;6.90;99.90
59067;DHT22;44854;50.838;4.438;2023-04-09T06:06:59;6.90;99.90
59067;DHT22;44854;50.838;4.438;2023-04-09T06:09:25;6.90;99.90
59067;DHT22;44854;50.838;4.438;2023-04-09T06:11:53;7.00;99.90
59067;DHT22;44854;50.838;4.438;2023-04-09T06:14:19;7.20;99.90
59067;DHT22;44854;50.838;4.438;2023-04-09T06:16:45;7.30;99.90
59067;DHT22;44854;50.838;4.438;2023-04-09T06:19:11;7.30;99.90
59067;DHT22;44854;50.838;4.438;2023-04-09T06:21:36;7.30;99.90
59067;DHT22;44854;50.838;4.438;2023-04-09T06:24:02;7.40;99.90
59067;DHT22;44854;50.838;4.438;2023-04-09T06:26:28;7.40;99.90
59067;DHT22;44854;50.838;4.438;2023-04-09T06:28:53;7.40;99.90
59067;DHT22;44854;50.838;4.438;2023-04-09T06:31:22;7.40;99.90
59067;DHT22;44854;50.838;4.438;2023-04-09T06:33:47;7.60;99.90
59067;DHT22;44854;50.838;4.438;2023-04-09T06:36:13;7.60;99.90
59067;DHT22;44854;50.838;4.438;2023-04-09T06:38:38;7.80;99.90
59067;DHT22;44854;50.838;4.438;2023-04-09T06:41:04;7.90;99.90
59067;DHT22;44854;50.838;4.438;2023-04-09T06:43:32;8.00;99.90
59067;DHT22;44854;50.838;4.438;2023-04-09T06:45:58;8.20;99.90
59067;DHT22;44854;50.838;4.438;2023-04-09T06:48:23;8.30;99.90
59067;DHT22;44854;50.838;4.438;2023-04-09T06:50:49;8.40;99.90
59067;DHT22;44854;50.838;4.438;2023-04-09T06:53:15;8.40;99.90
59067;DHT22;44854;50.838;4.438;2023-04-09T06:55:40;8.40;99.90
59067;DHT22;44854;50.838;4.438;2023-04-09T06:58:06;8.50;99.90
59067;DHT22;44854;50.838;4.438;2023-04-09T07:00:32;8.70;99.90
59067;DHT22;44854;50.838;4.438;2023-04-09T07:02:57;8.60;99.90
59067;DHT22;44854;50.838;4.438;2023-04-09T07:05:23;8.80;99.90
59067;DHT22;44854;50.838;4.438;2023-04-09T07:07:48;8.90;99.90
59067;DHT22;44854;50.838;4.438;2023-04-09T07:10:14;8.90;99.90
59067;DHT22;44854;50.838;4.438;2023-04-09T07:12:39;9.00;99.90
59067;DHT22;44854;50.838;4.438;2023-04-09T07:15:05;9.20;99.90
59067;DHT22;44854;50.838;4.438;2023-04-09T07:17:31;9.20;99.90
59067;DHT22;44854;50.838;4.438;2023-04-09T07:19:57;9.40;99.90
59067;DHT22;44854;50.838;4.438;2023-04-09T07:22:23;9.50;99.90
59067;DHT22;44854;50.838;4.438;2023-04-09T07:24:49;9.60;99.90
59067;DHT22;44854;50.838;4.438;2023-04-09T07:27:18;9.70;99.90
59067;DHT22;44854;50.838;4.438;2023-04-09T07:29:44;9.70;99.90
59067;DHT22;44854;50.838;4.438;2023-04-09T07:32:10;9.80;99.90
59067;DHT22;44854;50.838;4.438;2023-04-09T07:34:35;9.90;99.90
59067;DHT22;44854;50.838;4.438;2023-04-09T07:37:01;10.00;99.90
59067;DHT22;44854;50.838;4.438;2023-04-09T07:39:27;10.20;99.90
59067;DHT22;44854;50.838;4.438;2023-04-09T07:41:53;10.30;99.90
59067;DHT22;44854;50.838;4.438;2023-04-09T07:44:18;10.50;99.90
59067;DHT22;44854;50.838;4.438;2023-04-09T07:46:44;10.60;99.90
59067;DHT22;44854;50.838;4.438;2023-04-09T07:49:10;10.50;99.90
59067;DHT22;44854;50.838;4.438;2023-04-09T07:51:35;10.50;99.90
59067;DHT22;44854;50.838;4.438;2023-04-09T07:54:01;10.50;99.90
59067;DHT22;44854;50.838;4.438;2023-04-09T07:56:26;10.50;99.90
59067;DHT22;44854;50.838;4.438;2023-04-09T07:58:52;10.60;99.90
59067;DHT22;44854;50.838;4.438;2023-04-09T08:01:17;10.80;99.90
59067;DHT22;44854;50.838;4.438;2023-04-09T08:03:45;10.90;99.90
59067;DHT22;44854;50.838;4.438;2023-04-09T08:06:11;10.90;99.90
59067;DHT22;44854;50.838;4.438;2023-04-09T08:08:36;11.00;99.90
59067;DHT22;44854;50.838;4.438;2023-04-09T08:11:02;11.00;99.90
59067;DHT22;44854;50.838;4.438;2023-04-09T08:13:28;11.20;99.90
59067;DHT22;44854;50.838;4.438;2023-04-09T08:15:53;11.20;99.90
59067;DHT22;44854;50.838;4.438;2023-04-09T08:18:19;11.20;99.90
59067;DHT22;44854;50.838;4.438;2023-04-09T08:20:44;11.30;99.90
59067;DHT22;44854;50.838;4.438;2023-04-09T08:23:10;11.40;99.90
59067;DHT22;44854;50.838;4.438;2023-04-09T08:25:36;11.50;99.90
59067;DHT22;44854;50.838;4.438;2023-04-09T08:28:01;11.60;99.90
59067;DHT22;44854;50.838;4.438;2023-04-09T08:30:27;11.70;99.90
59067;DHT22;44854;50.838;4.438;2023-04-09T08:32:52;11.80;99.90
59067;DHT22;44854;50.838;4.438;2023-04-09T08:35:18;12.10;99.90
59067;DHT22;44854;50.838;4.438;2023-04-09T08:37:44;12.50;99.90
59067;DHT22;44854;50.838;4.438;2023-04-09T08:40:09;12.60;99.90
59067;DHT22;44854;50.838;4.438;2023-04-09T08:42:35;12.70;99.90
59067;DHT22;44854;50.838;4.438;2023-04-09T08:45:05;12.70;99.90
59067;DHT22;44854;50.838;4.438;2023-04-09T08:47:31;12.80;99.90
59067;DHT22;44854;50.838;4.438;2023-04-09T08:49:57;13.00;99.90
59067;DHT22;44854;50.838;4.438;2023-04-09T08:52:30;13.10;99.90
59067;DHT22;44854;50.838;4.438;2023-04-09T08:54:56;13.20;99.90
59067;DHT22;44854;50.838;4.438;2023-04-09T08:57:22;13.40;99.90
59067;DHT22;44854;50.838;4.438;2023-04-09T08:59:48;13.50;99.90
59067;DHT22;44854;50.838;4.438;2023-04-09T09:02:20;13.70;99.90
59067;DHT22;44854;50.838;4.438;2023-04-09T09:04:49;14.00;99.90
59067;DHT22;44854;50.838;4.438;2023-04-09T09:07:15;13.80;99.90
59067;DHT22;44854;50.838;4.438;2023-04-09T09:09:56;13.70;99.90
59067;DHT22;44854;50.838;4.438;2023-04-09T09:12:36;13.80;99.90
59067;DHT22;44854;50.838;4.438;2023-04-09T09:15:03;14.10;99.90
59067;DHT22;44854;50.838;4.438;2023-04-09T09:17:29;14.20;99.90
59067;DHT22;44854;50.838;4.438;2023-04-09T09:19:55;14.10;99.90
59067;DHT22;44854;50.838;4.438;2023-04-09T09:22:21;14.20;99.90
59067;DHT22;44854;50.838;4.438;2023-04-09T09:24:47;14.00;99.90
59067;DHT22;44854;50.838;4.438;2023-04-09T09:27:32;14.00;99.90
59067;DHT22;44854;50.838;4.438;2023-04-09T09:30:01;14.00;99.90
59067;DHT22;44854;50.838;4.438;2023-04-09T09:32:31;14.20;99.90
59067;DHT22;44854;50.838;4.438;2023-04-09T09:35:00;14.20;99.90
59067;DHT22;44854;50.838;4.438;2023-04-09T09:37:27;14.10;99.90
59067;DHT22;44854;50.838;4.438;2023-04-09T09:39:53;14.10;99.90
59067;DHT22;44854;50.838;4.438;2023-04-09T09:42:18;14.00;99.90
59067;DHT22;44854;50.838;4.438;2023-04-09T09:44:44;14.10;99.90
59067;DHT22;44854;50.838;4.438;2023-04-09T09:47:12;14.30;99.90
59067;DHT22;44854;50.838;4.438;2023-04-09T09:49:38;14.30;99.90
59067;DHT22;44854;50.838;4.438;2023-04-09T09:52:08;14.30;99.90
59067;DHT22;44854;50.838;4.438;2023-04-09T09:54:43;14.30;99.90
59067;DHT22;44854;50.838;4.438;2023-04-09T09:57:11;14.60;99.90
59067;DHT22;44854;50.838;4.438;2023-04-09T09:59:42;14.80;99.90
59067;DHT22;44854;50.838;4.438;2023-04-09T10:02:15;14.80;99.90
59067;DHT22;44854;50.838;4.438;2023-04-09T10:04:42;14.90;99.90
59067;DHT22;44854;50.838;4.438;2023-04-09T10:07:08;14.90;99.90
59067;DHT22;44854;50.838;4.438;2023-04-09T10:09:34;14.90;99.90
59067;DHT22;44854;50.838;4.438;2023-04-09T10:12:05;15.10;99.90
59067;DHT22;44854;50.838;4.438;2023-04-09T10:14:31;15.30;99.90
59067;DHT22;44854;50.838;4.438;2023-04-09T10:16:57;15.30;99.90
59067;DHT22;44854;50.838;4.438;2023-04-09T10:19:22;15.60;99.90
59067;DHT22;44854;50.838;4.438;2023-04-09T10:21:53;15.50;99.90
59067;DHT22;44854;50.838;4.438;2023-04-09T10:24:20;15.60;99.90
59067;DHT22;44854;50.838;4.438;2023-04-09T10:26:46;15.70;99.90
59067;DHT22;44854;50.838;4.438;2023-04-09T10:29:12;15.60;99.90
59067;DHT22;44854;50.838;4.438;2023-04-09T10:34:10;15.70;99.90
59067;DHT22;44854;50.838;4.438;2023-04-09T10:36:35;15.80;99.90
59067;DHT22;44854;50.838;4.438;2023-04-09T10:39:01;15.90;99.90
59067;DHT22;44854;50.838;4.438;2023-04-09T10:41:36;16.10;99.90
59067;DHT22;44854;50.838;4.438;2023-04-09T10:44:05;16.30;99.90
59067;DHT22;44854;50.838;4.438;2023-04-09T10:46:35;16.30;99.90
59067;DHT22;44854;50.838;4.438;2023-04-09T10:51:38;16.40;99.90
59067;DHT22;44854;50.838;4.438;2023-04-09T10:54:34;16.20;99.90
59067;DHT22;44854;50.838;4.438;2023-04-09T10:59:49;15.80;99.90
59067;DHT22;44854;50.838;4.438;2023-04-09T11:02:57;16.00;99.90
59067;DHT22;44854;50.838;4.438;2023-04-09T11:05:23;16.00;99.90
59067;DHT22;44854;50.838;4.438;2023-04-09T11:07:57;16.00;99.90
59067;DHT22;44854;50.838;4.438;2023-04-09T11:10:25;16.20;99.90
59067;DHT22;44854;50.838;4.438;2023-04-09T11:12:52;16.40;99.90
59067;DHT22;44854;50.838;4.438;2023-04-09T11:15:19;16.50;99.90
59067;DHT22;44854;50.838;4.438;2023-04-09T11:17:48;16.50;99.90
59067;DHT22;44854;50.838;4.438;2023-04-09T11:20:15;16.60;99.90
59067;DHT22;44854;50.838;4.438;2023-04-09T11:22:40;16.40;99.90
59067;DHT22;44854;50.838;4.438;2023-04-09T11:25:06;16.50;99.90
59067;DHT22;44854;50.838;4.438;2023-04-09T11:27:38;16.30;99.90
59067;DHT22;44854;50.838;4.438;2023-04-09T11:30:04;16.30;99.90
59067;DHT22;44854;50.838;4.438;2023-04-09T11:32:30;16.30;99.90
59067;DHT22;44854;50.838;4.438;2023-04-09T11:34:56;16.40;99.90
59067;DHT22;44854;50.838;4.438;2023-04-09T11:37:22;16.50;99.90
59067;DHT22;44854;50.838;4.438;2023-04-09T11:39:48;16.70;99.90
59067;DHT22;44854;50.838;4.438;2023-04-09T11:42:15;16.70;99.90
59067;DHT22;44854;50.838;4.438;2023-04-09T11:44:43;16.80;99.90
59067;DHT22;44854;50.838;4.438;2023-04-09T11:47:08;16.80;99.90
59067;DHT22;44854;50.838;4.438;2023-04-09T11:49:34;16.80;99.90
59067;DHT22;44854;50.838;4.438;2023-04-09T11:52:00;16.60;99.90
59067;DHT22;44854;50.838;4.438;2023-04-09T11:54:34;16.60;99.90
59067;DHT22;44854;50.838;4.438;2023-04-09T11:57:01;16.60;99.90
59067;DHT22;44854;50.838;4.438;2023-04-09T11:59:27;16.70;99.90
59067;DHT22;44854;50.838;4.438;2023-04-09T12:01:53;17.10;99.90
59067;DHT22;44854;50.838;4.438;2023-04-09T12:04:21;17.00;99.90
59067;DHT22;44854;50.838;4.438;2023-04-09T12:06:47;16.80;99.90
59067;DHT22;44854;50.838;4.438;2023-04-09T12:09:12;16.60;99.90
59067;DHT22;44854;50.838;4.438;2023-04-09T12:11:38;16.70;99.90
59067;DHT22;44854;50.838;4.438;2023-04-09T12:14:07;16.60;99.90
59067;DHT22;44854;50.838;4.438;2023-04-09T12:16:36;16.60;99.90
59067;DHT22;44854;50.838;4.438;2023-04-09T12:19:03;16.70;99.90
59067;DHT22;44854;50.838;4.438;2023-04-09T12:21:49;16.90;99.90
59067;DHT22;44854;50.838;4.438;2023-04-09T12:24:15;16.90;99.90
59067;DHT22;44854;50.838;4.438;2023-04-09T12:26:41;17.00;99.90
59067;DHT22;44854;50.838;4.438;2023-04-09T12:29:07;17.00;99.90
59067;DHT22;44854;50.838;4.438;2023-04-09T12:31:32;17.10;99.90
59067;DHT22;44854;50.838;4.438;2023-04-09T12:33:58;17.20;99.90
59067;DHT22;44854;50.838;4.438;2023-04-09T12:36:23;17.30;99.90
59067;DHT22;44854;50.838;4.438;2023-04-09T12:38:50;17.50;99.90
59067;DHT22;44854;50.838;4.438;2023-04-09T12:41:16;17.40;99.90
59067;DHT22;44854;50.838;4.438;2023-04-09T12:43:41;17.50;99.90
59067;DHT22;44854;50.838;4.438;2023-04-09T12:46:11;17.40;99.90
59067;DHT22;44854;50.838;4.438;2023-04-09T12:48:37;17.70;99.90
59067;DHT22;44854;50.838;4.438;2023-04-09T12:51:03;18.10;99.90
59067;DHT22;44854;50.838;4.438;2023-04-09T12:53:28;18.40;99.90
59067;DHT22;44854;50.838;4.438;2023-04-09T12:55:54;18.50;99.90
59067;DHT22;44854;50.838;4.438;2023-04-09T12:58:20;18.40;99.90
59067;DHT22;44854;50.838;4.438;2023-04-09T13:00:45;18.30;99.90
59067;DHT22;44854;50.838;4.438;2023-04-09T13:03:11;18.30;99.90
59067;DHT22;44854;50.838;4.438;2023-04-09T13:05:36;18.60;99.90
59067;DHT22;44854;50.838;4.438;2023-04-09T13:08:02;18.70;99.90
59067;DHT22;44854;50.838;4.438;2023-04-09T13:10:28;18.80;99.90
59067;DHT22;44854;50.838;4.438;2023-04-09T13:12:54;19.10;99.90
59067;DHT22;44854;50.838;4.438;2023-04-09T13:15:20;19.30;99.90
59067;DHT22;44854;50.838;4.438;2023-04-09T13:17:46;19.60;99.90
59067;DHT22;44854;50.838;4.438;2023-04-09T13:20:11;19.50;99.30
59067;DHT22;44854;50.838;4.438;2023-04-09T13:22:37;19.40;98.70
59067;DHT22;44854;50.838;4.438;2023-04-09T13:25:03;19.00;98.70
59067;DHT22;44854;50.838;4.438;2023-04-09T13:27:29;18.70;99.10
59067;DHT22;44854;50.838;4.438;2023-04-09T13:29:54;18.50;99.30
59067;DHT22;44854;50.838;4.438;2023-04-09T13:32:20;18.50;99.30
59067;DHT22;44854;50.838;4.438;2023-04-09T13:34:46;18.60;99.10
59067;DHT22;44854;50.838;4.438;2023-04-09T13:37:12;18.60;99.50
59067;DHT22;44854;50.838;4.438;2023-04-09T13:39:37;18.50;99.10
59067;DHT22;44854;50.838;4.438;2023-04-09T13:42:03;18.20;99.60
59067;DHT22;44854;50.838;4.438;2023-04-09T13:44:28;18.20;99.80
59067;DHT22;44854;50.838;4.438;2023-04-09T13:46:54;17.90;99.90
59067;DHT22;44854;50.838;4.438;2023-04-09T13:49:19;17.80;99.90
59067;DHT22;44854;50.838;4.438;2023-04-09T13:51:45;17.50;99.90
59067;DHT22;44854;50.838;4.438;2023-04-09T13:54:11;17.40;99.90
59067;DHT22;44854;50.838;4.438;2023-04-09T13:56:37;17.50;99.90
59067;DHT22;44854;50.838;4.438;2023-04-09T13:59:02;17.80;99.90
59067;DHT22;44854;50.838;4.438;2023-04-09T14:01:28;17.70;99.80
59067;DHT22;44854;50.838;4.438;2023-04-09T14:03:54;17.80;99.90
59067;DHT22;44854;50.838;4.438;2023-04-09T14:06:20;17.90;99.90
59067;DHT22;44854;50.838;4.438;2023-04-09T14:08:45;18.10;99.60
59067;DHT22;44854;50.838;4.438;2023-04-09T14:11:11;17.80;99.70
59067;DHT22;44854;50.838;4.438;2023-04-09T14:13:39;17.80;99.80
59067;DHT22;44854;50.838;4.438;2023-04-09T14:16:05;17.90;99.80
59067;DHT22;44854;50.838;4.438;2023-04-09T14:18:31;17.90;99.60
59067;DHT22;44854;50.838;4.438;2023-04-09T14:20:57;17.80;99.60
59067;DHT22;44854;50.838;4.438;2023-04-09T14:23:24;17.90;99.60
59067;DHT22;44854;50.838;4.438;2023-04-09T14:25:50;17.60;99.90
59067;DHT22;44854;50.838;4.438;2023-04-09T14:28:16;17.60;99.90
59067;DHT22;44854;50.838;4.438;2023-04-09T14:30:41;17.70;99.70
59067;DHT22;44854;50.838;4.438;2023-04-09T14:33:07;17.70;99.60
59067;DHT22;44854;50.838;4.438;2023-04-09T14:35:33;17.80;99.40
59067;DHT22;44854;50.838;4.438;2023-04-09T14:37:58;17.80;99.20
59067;DHT22;44854;50.838;4.438;2023-04-09T14:40:25;17.80;99.50
59067;DHT22;44854;50.838;4.438;2023-04-09T14:42:51;17.90;99.40
59067;DHT22;44854;50.838;4.438;2023-04-09T14:45:17;17.90;99.20
59067;DHT22;44854;50.838;4.438;2023-04-09T14:47:42;18.00;99.30
59067;DHT22;44854;50.838;4.438;2023-04-09T14:50:08;18.10;98.70
59067;DHT22;44854;50.838;4.438;2023-04-09T14:52:35;18.10;98.90
59067;DHT22;44854;50.838;4.438;2023-04-09T14:55:00;18.10;98.80
59067;DHT22;44854;50.838;4.438;2023-04-09T14:57:26;18.20;98.50
59067;DHT22;44854;50.838;4.438;2023-04-09T14:59:52;18.30;98.10
59067;DHT22;44854;50.838;4.438;2023-04-09T15:02:17;18.30;98.20
59067;DHT22;44854;50.838;4.438;2023-04-09T15:04:43;18.20;98.00
59067;DHT22;44854;50.838;4.438;2023-04-09T15:07:08;18.20;97.90
59067;DHT22;44854;50.838;4.438;2023-04-09T15:09:34;18.10;98.30
59067;DHT22;44854;50.838;4.438;2023-04-09T15:11:59;18.30;98.40
59067;DHT22;44854;50.838;4.438;2023-04-09T15:14:29;18.30;98.00
59067;DHT22;44854;50.838;4.438;2023-04-09T15:16:55;18.40;98.30
59067;DHT22;44854;50.838;4.438;2023-04-09T15:19:20;18.40;98.10
59067;DHT22;44854;50.838;4.438;2023-04-09T15:21:46;18.30;98.30
59067;DHT22;44854;50.838;4.438;2023-04-09T15:24:11;18.50;97.80
59067;DHT22;44854;50.838;4.438;2023-04-09T15:26:37;18.40;97.50
59067;DHT22;44854;50.838;4.438;2023-04-09T15:29:04;18.40;97.70
59067;DHT22;44854;50.838;4.438;2023-04-09T15:31:31;18.40;97.70
59067;DHT22;44854;50.838;4.438;2023-04-09T15:33:57;18.30;97.80
59067;DHT22;44854;50.838;4.438;2023-04-09T15:36:22;18.30;97.80
59067;DHT22;44854;50.838;4.438;2023-04-09T15:38:48;18.30;97.80
59067;DHT22;44854;50.838;4.438;2023-04-09T15:41:13;18.30;98.00
59067;DHT22;44854;50.838;4.438;2023-04-09T15:43:41;18.30;97.90
59067;DHT22;44854;50.838;4.438;2023-04-09T15:46:09;18.30;97.80
59067;DHT22;44854;50.838;4.438;2023-04-09T15:48:35;18.30;97.20
59067;DHT22;44854;50.838;4.438;2023-04-09T15:51:00;18.30;97.30
59067;DHT22;44854;50.838;4.438;2023-04-09T15:53:26;18.40;97.30
59067;DHT22;44854;50.838;4.438;2023-04-09T15:55:57;18.30;97.40
59067;DHT22;44854;50.838;4.438;2023-04-09T15:58:23;18.40;97.10
59067;DHT22;44854;50.838;4.438;2023-04-09T16:00:48;18.30;96.80
59067;DHT22;44854;50.838;4.438;2023-04-09T16:03:16;18.30;97.20
59067;DHT22;44854;50.838;4.438;2023-04-09T16:05:41;18.40;97.20
59067;DHT22;44854;50.838;4.438;2023-04-09T16:08:07;18.40;96.80
59067;DHT22;44854;50.838;4.438;2023-04-09T16:10:33;18.40;96.80
59067;DHT22;44854;50.838;4.438;2023-04-09T16:12:58;18.50;96.80
59067;DHT22;44854;50.838;4.438;2023-04-09T16:15:24;18.60;97.20
59067;DHT22;44854;50.838;4.438;2023-04-09T16:17:50;18.60;96.40
59067;DHT22;44854;50.838;4.438;2023-04-09T16:20:15;18.60;96.40
59067;DHT22;44854;50.838;4.438;2023-04-09T16:22:41;18.50;96.50
59067;DHT22;44854;50.838;4.438;2023-04-09T16:25:06;18.50;96.20
59067;DHT22;44854;50.838;4.438;2023-04-09T16:27:32;18.40;96.50
59067;DHT22;44854;50.838;4.438;2023-04-09T16:29:57;18.40;96.00
59067;DHT22;44854;50.838;4.438;2023-04-09T16:32:23;18.30;96.10
59067;DHT22;44854;50.838;4.438;2023-04-09T16:34:48;18.20;96.20
59067;DHT22;44854;50.838;4.438;2023-04-09T16:37:14;18.20;96.20
59067;DHT22;44854;50.838;4.438;2023-04-09T16:39:39;18.20;96.40
59067;DHT22;44854;50.838;4.438;2023-04-09T16:42:06;18.30;96.50
59067;DHT22;44854;50.838;4.438;2023-04-09T16:44:31;18.30;96.10
59067;DHT22;44854;50.838;4.438;2023-04-09T16:46:57;18.10;96.20
59067;DHT22;44854;50.838;4.438;2023-04-09T16:49:23;18.10;96.40
59067;DHT22;44854;50.838;4.438;2023-04-09T16:51:48;17.90;97.10
59067;DHT22;44854;50.838;4.438;2023-04-09T16:54:16;17.80;96.90
59067;DHT22;44854;50.838;4.438;2023-04-09T16:56:41;17.80;97.00
59067;DHT22;44854;50.838;4.438;2023-04-09T16:59:07;17.70;97.30
59067;DHT22;44854;50.838;4.438;2023-04-09T17:01:32;17.60;97.00
59067;DHT22;44854;50.838;4.438;2023-04-09T17:03:59;17.50;97.40
59067;DHT22;44854;50.838;4.438;2023-04-09T17:06:26;17.50;97.30
59067;DHT22;44854;50.838;4.438;2023-04-09T17:08:52;17.40;97.00
59067;DHT22;44854;50.838;4.438;2023-04-09T17:11:17;17.40;96.80
59067;DHT22;44854;50.838;4.438;2023-04-09T17:13:43;17.40;96.90
59067;DHT22;44854;50.838;4.438;2023-04-09T17:16:08;17.30;96.90
59067;DHT22;44854;50.838;4.438;2023-04-09T17:18:36;17.40;97.10
59067;DHT22;44854;50.838;4.438;2023-04-09T17:21:01;17.40;97.40
59067;DHT22;44854;50.838;4.438;2023-04-09T17:23:27;17.30;97.20
59067;DHT22;44854;50.838;4.438;2023-04-09T17:25:53;17.20;97.60
59067;DHT22;44854;50.838;4.438;2023-04-09T17:28:18;17.20;97.50
59067;DHT22;44854;50.838;4.438;2023-04-09T17:30:44;17.10;97.70
59067;DHT22;44854;50.838;4.438;2023-04-09T17:33:09;17.10;97.80
59067;DHT22;44854;50.838;4.438;2023-04-09T17:35:36;17.10;97.80
59067;DHT22;44854;50.838;4.438;2023-04-09T17:38:02;17.10;97.70
59067;DHT22;44854;50.838;4.438;2023-04-09T17:40:27;17.10;97.70
59067;DHT22;44854;50.838;4.438;2023-04-09T17:42:53;17.00;97.90
59067;DHT22;44854;50.838;4.438;2023-04-09T17:45:19;16.90;97.80
59067;DHT22;44854;50.838;4.438;2023-04-09T17:47:45;16.90;97.90
59067;DHT22;44854;50.838;4.438;2023-04-09T17:50:11;16.90;98.00
59067;DHT22;44854;50.838;4.438;2023-04-09T17:52:36;16.80;98.00
59067;DHT22;44854;50.838;4.438;2023-04-09T17:55:03;16.80;98.30
59067;DHT22;44854;50.838;4.438;2023-04-09T17:57:29;16.70;98.40
59067;DHT22;44854;50.838;4.438;2023-04-09T17:59:55;16.70;98.50
59067;DHT22;44854;50.838;4.438;2023-04-09T18:02:20;16.60;98.70
59067;DHT22;44854;50.838;4.438;2023-04-09T18:04:46;16.50;99.00
59067;DHT22;44854;50.838;4.438;2023-04-09T18:07:11;16.40;99.00
59067;DHT22;44854;50.838;4.438;2023-04-09T18:09:37;16.40;99.10
59067;DHT22;44854;50.838;4.438;2023-04-09T18:12:04;16.30;99.10
59067;DHT22;44854;50.838;4.438;2023-04-09T18:14:30;16.20;99.60
59067;DHT22;44854;50.838;4.438;2023-04-09T18:16:56;16.10;99.80
59067;DHT22;44854;50.838;4.438;2023-04-09T18:19:22;16.10;99.90
59067;DHT22;44854;50.838;4.438;2023-04-09T18:21:48;16.10;99.90
59067;DHT22;44854;50.838;4.438;2023-04-09T18:24:14;16.00;99.90
59067;DHT22;44854;50.838;4.438;2023-04-09T18:26:39;15.90;99.90
59067;DHT22;44854;50.838;4.438;2023-04-09T18:29:05;15.80;99.90
59067;DHT22;44854;50.838;4.438;2023-04-09T18:31:31;15.70;99.90
59067;DHT22;44854;50.838;4.438;2023-04-09T18:33:56;15.50;99.90
59067;DHT22;44854;50.838;4.438;2023-04-09T18:36:22;15.40;99.90
59067;DHT22;44854;50.838;4.438;2023-04-09T18:38:47;15.50;99.90
59067;DHT22;44854;50.838;4.438;2023-04-09T18:41:20;15.20;99.90
59067;DHT22;44854;50.838;4.438;2023-04-09T18:43:46;15.10;99.90
59067;DHT22;44854;50.838;4.438;2023-04-09T18:46:12;15.10;99.90
59067;DHT22;44854;50.838;4.438;2023-04-09T18:48:38;15.00;99.90
59067;DHT22;44854;50.838;4.438;2023-04-09T18:51:03;14.90;99.90
59067;DHT22;44854;50.838;4.438;2023-04-09T18:53:29;14.90;99.90
59067;DHT22;44854;50.838;4.438;2023-04-09T18:55:55;14.70;99.90
59067;DHT22;44854;50.838;4.438;2023-04-09T18:58:21;14.70;99.90
59067;DHT22;44854;50.838;4.438;2023-04-09T19:00:48;14.60;99.90
59067;DHT22;44854;50.838;4.438;2023-04-09T19:03:17;14.60;99.90
59067;DHT22;44854;50.838;4.438;2023-04-09T19:05:43;14.50;99.90
59067;DHT22;44854;50.838;4.438;2023-04-09T19:08:09;14.40;99.90
59067;DHT22;44854;50.838;4.438;2023-04-09T19:10:35;14.30;99.90
59067;DHT22;44854;50.838;4.438;2023-04-09T19:13:01;14.30;99.90
59067;DHT22;44854;50.838;4.438;2023-04-09T19:15:27;14.30;99.90
59067;DHT22;44854;50.838;4.438;2023-04-09T19:17:53;14.20;99.90
59067;DHT22;44854;50.838;4.438;2023-04-09T19:20:19;14.10;99.90
59067;DHT22;44854;50.838;4.438;2023-04-09T19:22:45;13.90;99.90
59067;DHT22;44854;50.838;4.438;2023-04-09T19:25:12;13.90;99.90
59067;DHT22;44854;50.838;4.438;2023-04-09T19:27:38;13.90;99.90
59067;DHT22;44854;50.838;4.438;2023-04-09T19:30:04;13.70;99.90
59067;DHT22;44854;50.838;4.438;2023-04-09T19:32:29;13.70;99.90
59067;DHT22;44854;50.838;4.438;2023-04-09T19:34:55;13.60;99.90
59067;DHT22;44854;50.838;4.438;2023-04-09T19:37:21;13.60;99.90
59067;DHT22;44854;50.838;4.438;2023-04-09T19:39:51;13.50;99.90